Cedarville, New Jersey
Current Conditions -  °F | °C
As of 6:54 AM on Sunday 25 Jan 2015 (Local Time) from KMIV Reporting Station
Overcast Overcast  
Wind Chill: 28°   Ceiling: 5500
Heat Index: 35°   Visibility: 10mi
Dew Point: 29°   Wind: 9mph
Humidity: 78%   Direction: 250°WSW
Pressure: 29.77"   Gusts: NA
Location:  39.33°N, 75.2°W
Report Text: KMIV 251154Z AUTO 25008KT 10SM OVC055 02/M02 A2977 RMK AO2 SLP081 70005 T00171017 10017 21006 53029 $
Loading
Personal Weather Stations






























Interactive Weather Map New forecast layout! Learn more

10-Day Weather Forecast

Advertisements
Track Severe Weather on mobile